KGDJ

Granbury Regional Airport

Granbury, Texas, USA
METAR KGDJ 230815Z AUTO 00000KT 10SM OVC014 04/02 A3025 RMK AO2 LTG DSNT NE THRU S T00370016
Observed Flight Rules
Feb-23 @ 08:15 UTC (14 minutes ago) Marginal Visual Flight Rules
Wind Visibility Clouds
Calm 10 miles
  • Overcast at 1,400' AGL
Temperatures Readings
Current 4°C / 39°F
Dewpoint 2°C / 36°F
Humidity 87%
Altimeter 30.25" Hg
Pressure 1024 hPa
Elevation 237
METAR KGDJ 230815Z AUTO 00000KT 10SM OVC014 04/02 A3025 RMK AO2 LTG DSNT NE THRU S T00370016
Observed Flight Rules
Feb-23 @ 08:15 UTC
(14 minutes ago)
MVFR
Wind Visibility
Calm 10 miles
Clouds
  • Overcast at 1,400' AGL
Temperature Dewpoint
4°C / 39°F 2°C / 36°F
Humidity Altimeter Pressure
87% 30.25" Hg 1024 hPa